createdAt,value
2023-05-01T00:02:04.112Z,26.80
2023-05-01T00:05:08.337Z,26.69
2023-05-01T00:08:11.980Z,26.45
2023-05-01T00:11:15.460Z,26.36
2023-05-01T00:14:22.378Z,26.24
2023-05-01T00:17:26.624Z,25.97
2023-05-01T00:20:30.567Z,25.91
2023-05-01T00:23:36.122Z,25.65
2023-05-01T00:26:39.322Z,25.22
2023-05-01T00:29:42.928Z,25.16
2023-05-01T00:32:46.279Z,24.85
2023-05-01T00:35:49.557Z,24.61
2023-05-01T00:38:52.806Z,24.22
2023-05-01T00:41:56.023Z,24.20
2023-05-01T00:44:59.347Z,24.02
2023-05-01T00:48:04.992Z,23.63
2023-05-01T00:51:09.309Z,23.73
2023-05-01T00:54:12.598Z,23.50
2023-05-01T00:57:15.848Z,23.53
2023-05-01T01:00:21.324Z,23.54
2023-05-01T01:03:26.947Z,23.62
2023-05-01T01:06:34.623Z,23.32
2023-05-01T01:09:51.175Z,23.14
2023-05-01T01:13:15.010Z,22.90
2023-05-01T01:16:37.452Z,22.80
2023-05-01T01:19:55.958Z,22.56
2023-05-01T01:23:36.406Z,22.44
2023-05-01T01:27:03.047Z,22.37
2023-05-01T01:30:15.698Z,21.63
2023-05-01T01:33:57.577Z,21.55
2023-05-01T01:37:09.521Z,21.65
2023-05-01T01:40:20.337Z,21.37
2023-05-01T01:43:25.553Z,21.31
2023-05-01T01:46:29.773Z,21.36
2023-05-01T01:49:33.837Z,21.63
2023-05-01T01:52:40.433Z,21.36
2023-05-01T01:55:45.772Z,21.00
2023-05-01T01:58:50.512Z,20.71
2023-05-01T02:01:54.922Z,20.74
2023-05-01T02:05:00.660Z,20.82
2023-05-01T02:08:05.539Z,21.08
2023-05-01T02:11:09.405Z,20.95
2023-05-01T02:14:14.161Z,20.64
2023-05-01T02:17:18.199Z,20.71
2023-05-01T02:20:22.438Z,20.69
2023-05-01T02:23:27.928Z,20.59
2023-05-01T02:26:32.214Z,20.07
2023-05-01T02:29:35.640Z,20.31
2023-05-01T02:32:45.219Z,20.25
2023-05-01T02:35:48.841Z,19.98
2023-05-01T02:38:52.184Z,20.12
2023-05-01T02:41:56.143Z,20.22
2023-05-01T02:45:02.351Z,20.32
2023-05-01T02:48:08.857Z,20.27
2023-05-01T02:51:12.673Z,20.25
2023-05-01T02:54:16.149Z,20.24
2023-05-01T02:57:21.279Z,19.82
2023-05-01T03:00:24.707Z,19.79
2023-05-01T03:03:28.038Z,19.77
2023-05-01T03:06:31.655Z,19.80
2023-05-01T03:09:34.837Z,19.90
2023-05-01T03:12:38.101Z,19.89
2023-05-01T03:15:41.435Z,19.29
2023-05-01T03:18:50.824Z,18.86
2023-05-01T03:21:54.304Z,19.01
2023-05-01T03:24:57.593Z,18.77
2023-05-01T03:28:01.087Z,19.01
2023-05-01T03:31:04.647Z,19.20
2023-05-01T03:34:08.266Z,19.28
2023-05-01T03:37:11.595Z,19.43
2023-05-01T03:40:15.193Z,18.79
2023-05-01T03:43:18.720Z,18.65
2023-05-01T03:46:24.245Z,18.58
2023-05-01T03:49:27.619Z,18.55
2023-05-01T03:52:30.849Z,18.73
2023-05-01T03:55:34.433Z,18.60
2023-05-01T03:58:37.913Z,18.60
2023-05-01T04:01:44.203Z,18.42
2023-05-01T04:04:47.476Z,18.46
2023-05-01T04:07:53.171Z,18.62
2023-05-01T04:10:56.374Z,18.49
2023-05-01T04:14:03.990Z,18.56
2023-05-01T04:17:07.453Z,18.53
2023-05-01T04:20:11.622Z,18.63
2023-05-01T04:23:14.821Z,18.70
2023-05-01T04:26:19.747Z,18.78
2023-05-01T04:29:23.310Z,19.01
2023-05-01T04:32:29.858Z,19.05
2023-05-01T04:35:33.307Z,19.09
2023-05-01T04:38:36.595Z,19.16
2023-05-01T04:41:39.733Z,18.83
2023-05-01T04:44:42.949Z,18.38
2023-05-01T04:47:46.233Z,18.73
2023-05-01T04:50:49.513Z,18.82
2023-05-01T04:53:54.958Z,18.55
2023-05-01T04:56:58.297Z,18.16
2023-05-01T05:00:03.174Z,18.40
2023-05-01T05:03:06.772Z,18.39
2023-05-01T05:06:10.115Z,18.20
2023-05-01T05:09:13.884Z,17.90
2023-05-01T05:12:17.767Z,17.96
2023-05-01T05:15:21.114Z,18.15
2023-05-01T05:18:25.632Z,18.20
2023-05-01T05:21:28.945Z,18.30
2023-05-01T05:24:32.506Z,18.40
2023-05-01T05:27:35.947Z,18.21
2023-05-01T05:30:39.345Z,18.27
2023-05-01T05:33:42.909Z,18.18
2023-05-01T05:36:46.263Z,18.20
2023-05-01T05:39:49.734Z,18.23
2023-05-01T05:42:52.971Z,17.38
2023-05-01T05:46:00.808Z,17.22
2023-05-01T05:49:04.050Z,17.43
2023-05-01T05:52:07.521Z,17.76
2023-05-01T05:55:11.064Z,17.88
2023-05-01T05:58:15.087Z,17.89
2023-05-01T06:01:18.831Z,17.87
2023-05-01T06:04:22.310Z,17.88
2023-05-01T06:07:25.816Z,17.60
2023-05-01T06:10:31.480Z,17.64
2023-05-01T06:13:36.945Z,17.65
2023-05-01T06:16:40.333Z,17.55
2023-05-01T06:19:43.899Z,17.34
2023-05-01T06:22:47.282Z,17.22
2023-05-01T06:25:50.725Z,17.12
2023-05-01T06:28:54.520Z,17.13
2023-05-01T06:31:58.077Z,17.10
2023-05-01T06:35:03.287Z,17.06
2023-05-01T06:38:06.482Z,16.81
2023-05-01T06:41:09.663Z,16.96
2023-05-01T06:44:13.459Z,17.03
2023-05-01T06:47:16.727Z,16.80
2023-05-01T06:50:19.871Z,16.78
2023-05-01T06:53:23.212Z,16.97
2023-05-01T06:56:26.715Z,16.96
2023-05-01T06:59:31.510Z,16.84
2023-05-01T07:02:35.023Z,16.95
2023-05-01T07:05:38.992Z,16.90
2023-05-01T07:08:42.233Z,17.11
2023-05-01T07:11:45.853Z,16.49
2023-05-01T07:14:49.067Z,16.38
2023-05-01T07:17:52.426Z,16.63
2023-05-01T07:20:57.929Z,16.81
2023-05-01T07:24:01.310Z,16.64
2023-05-01T07:27:04.708Z,16.52
2023-05-01T07:30:08.640Z,16.43
2023-05-01T07:33:12.106Z,16.30
2023-05-01T07:36:15.673Z,16.66
2023-05-01T07:39:18.979Z,16.76
2023-05-01T07:42:22.196Z,16.66
2023-05-01T07:45:25.694Z,16.70
2023-05-01T07:48:29.634Z,16.74
2023-05-01T07:51:32.866Z,16.66
2023-05-01T07:54:36.484Z,16.86
2023-05-01T07:57:41.676Z,16.95
2023-05-01T08:00:44.987Z,17.16
2023-05-01T08:03:50.280Z,17.10
2023-05-01T08:06:55.472Z,17.19
2023-05-01T08:10:00.140Z,17.36
2023-05-01T08:13:03.982Z,17.48
2023-05-01T08:16:07.721Z,17.66
2023-05-01T08:19:11.106Z,17.81
2023-05-01T08:22:14.422Z,17.85
2023-05-01T08:25:17.793Z,17.84
2023-05-01T08:28:21.186Z,18.01
2023-05-01T08:31:24.846Z,17.97
2023-05-01T08:34:28.106Z,17.94
2023-05-01T08:37:31.664Z,17.44
2023-05-01T08:40:37.554Z,17.49
2023-05-01T08:43:41.000Z,17.30
2023-05-01T08:47:21.247Z,17.38
2023-05-01T08:50:27.869Z,17.46
2023-05-01T08:53:33.976Z,17.49
2023-05-01T08:56:40.467Z,17.43
2023-05-01T08:59:45.322Z,17.19
2023-05-01T09:02:50.061Z,17.08
2023-05-01T09:05:54.806Z,17.23
2023-05-01T09:09:01.128Z,17.22
2023-05-01T09:12:16.466Z,17.08
2023-05-01T09:15:19.894Z,16.73
2023-05-01T09:18:23.136Z,16.74
2023-05-01T09:21:28.460Z,16.78
2023-05-01T09:24:31.804Z,16.94
2023-05-01T09:27:35.885Z,16.75
2023-05-01T09:30:40.680Z,16.59
2023-05-01T09:33:59.127Z,16.71
2023-05-01T09:37:03.092Z,16.65
2023-05-01T09:40:10.496Z,16.70
2023-05-01T09:43:13.692Z,16.24
2023-05-01T09:46:17.097Z,15.99
2023-05-01T09:49:20.435Z,15.95
2023-05-01T09:52:28.884Z,15.52
2023-05-01T09:55:33.285Z,15.60
2023-05-01T09:58:36.945Z,15.63
2023-05-01T10:01:42.578Z,15.71
2023-05-01T10:04:48.699Z,15.53
2023-05-01T10:08:01.617Z,15.46
2023-05-01T10:11:05.136Z,15.64
2023-05-01T10:14:09.547Z,15.73
2023-05-01T10:17:22.432Z,15.51
2023-05-01T10:20:26.390Z,15.26
2023-05-01T10:23:30.486Z,15.30
2023-05-01T10:26:37.817Z,15.14
2023-05-01T10:29:41.979Z,15.04
2023-05-01T10:32:45.246Z,15.00
2023-05-01T10:35:56.880Z,14.88
2023-05-01T10:39:00.171Z,15.09
2023-05-01T10:42:07.459Z,14.75
2023-05-01T10:45:29.629Z,14.92
2023-05-01T10:48:41.234Z,14.87
2023-05-01T10:51:59.725Z,14.90
2023-05-01T10:55:37.422Z,14.99
2023-05-01T10:58:40.615Z,14.99
2023-05-01T11:01:46.133Z,14.70
2023-05-01T11:04:53.447Z,14.51
2023-05-01T11:08:35.060Z,14.48
2023-05-01T11:11:46.737Z,14.20
2023-05-01T11:14:56.186Z,14.00
2023-05-01T11:18:01.101Z,13.80
2023-05-01T11:21:04.660Z,13.60
2023-05-01T11:24:08.420Z,13.71
2023-05-01T11:27:14.861Z,13.97
2023-05-01T11:30:18.289Z,13.70
2023-05-01T11:33:27.460Z,13.61
2023-05-01T11:36:32.332Z,13.57
2023-05-01T11:39:35.967Z,13.58
2023-05-01T11:42:40.050Z,13.70
2023-05-01T11:45:45.620Z,13.58
2023-05-01T11:48:51.204Z,13.66
2023-05-01T11:51:58.780Z,13.95
2023-05-01T11:55:02.686Z,14.30
2023-05-01T11:58:06.210Z,14.36
2023-05-01T12:01:09.733Z,13.93
2023-05-01T12:04:14.097Z,13.63
2023-05-01T12:07:25.217Z,13.63
2023-05-01T12:10:28.960Z,13.62
2023-05-01T12:13:32.279Z,13.85
2023-05-01T12:16:36.465Z,14.31
2023-05-01T12:19:52.971Z,14.20
2023-05-01T12:22:56.465Z,14.19
2023-05-01T12:26:00.459Z,14.48
2023-05-01T12:29:05.739Z,14.67
2023-05-01T12:32:09.226Z,14.73
2023-05-01T12:35:16.462Z,15.31
2023-05-01T12:38:19.953Z,15.45
2023-05-01T12:41:43.336Z,15.57
2023-05-01T12:44:46.602Z,15.82
2023-05-01T12:47:49.981Z,15.51
2023-05-01T12:50:56.109Z,15.54
2023-05-01T12:53:59.533Z,15.70
2023-05-01T12:57:13.571Z,15.79
2023-05-01T13:00:17.564Z,16.24
2023-05-01T13:03:26.412Z,16.61
2023-05-01T13:06:34.806Z,16.88
2023-05-01T13:09:38.372Z,17.03
2023-05-01T13:12:47.935Z,17.17
2023-05-01T13:15:53.443Z,17.45
2023-05-01T13:18:56.750Z,18.18
2023-05-01T13:22:00.381Z,18.17
2023-05-01T13:25:25.094Z,18.41
2023-05-01T13:28:28.290Z,18.39
2023-05-01T13:31:32.073Z,18.42
2023-05-01T13:34:36.056Z,18.65
2023-05-01T13:37:41.107Z,19.03
2023-05-01T13:40:44.375Z,18.99
2023-05-01T13:43:53.617Z,19.16
2023-05-01T13:46:56.844Z,19.74
2023-05-01T13:50:05.683Z,20.00
2023-05-01T13:53:08.906Z,20.22
2023-05-01T13:56:14.366Z,19.84
2023-05-01T13:59:17.763Z,19.85
2023-05-01T14:02:25.643Z,19.56
2023-05-01T14:05:29.167Z,20.19
2023-05-01T14:08:35.829Z,20.09
2023-05-01T14:11:45.515Z,19.99
2023-05-01T14:14:52.112Z,19.99
2023-05-01T14:17:55.449Z,20.05
2023-05-01T14:21:00.307Z,20.57
2023-05-01T14:24:03.714Z,20.89
2023-05-01T14:27:09.214Z,21.18
2023-05-01T14:30:29.667Z,21.26
2023-05-01T14:33:35.780Z,21.31
2023-05-01T14:36:40.969Z,21.30
2023-05-01T14:39:44.520Z,21.40
2023-05-01T14:42:47.829Z,21.49
2023-05-01T14:45:51.210Z,21.88
2023-05-01T14:48:54.788Z,21.73
2023-05-01T14:51:58.064Z,21.49
2023-05-01T14:55:01.430Z,22.12
2023-05-01T14:58:04.779Z,22.45
2023-05-01T15:01:08.512Z,21.85
2023-05-01T15:04:21.974Z,21.85
2023-05-01T15:07:28.589Z,22.12
2023-05-01T15:10:32.172Z,22.66
2023-05-01T15:13:37.460Z,22.70
2023-05-01T15:16:41.067Z,22.50
2023-05-01T15:19:46.364Z,22.75
2023-05-01T15:22:49.626Z,22.52
2023-05-01T15:25:54.003Z,22.55
2023-05-01T15:28:57.311Z,23.22
2023-05-01T15:32:11.209Z,22.71
2023-05-01T15:35:15.724Z,23.03
2023-05-01T15:38:19.126Z,22.56
2023-05-01T15:41:22.479Z,22.43
2023-05-01T15:44:25.950Z,22.54
2023-05-01T15:47:29.463Z,23.01
2023-05-01T15:50:32.881Z,23.34
2023-05-01T15:53:39.224Z,23.95
2023-05-01T15:56:42.693Z,23.34
2023-05-01T15:59:46.152Z,24.08
2023-05-01T16:02:50.651Z,24.13
2023-05-01T16:05:56.279Z,23.82
2023-05-01T16:08:59.726Z,24.62
2023-05-01T16:12:03.580Z,23.79
2023-05-01T16:15:07.513Z,24.28
2023-05-01T16:18:20.635Z,24.29
2023-05-01T16:21:25.395Z,24.03
2023-05-01T16:24:28.677Z,24.41
2023-05-01T16:27:31.890Z,24.75
2023-05-01T16:30:35.213Z,24.20
2023-05-01T16:33:39.022Z,24.19
2023-05-01T16:36:43.105Z,24.93
2023-05-01T16:39:46.648Z,24.10
2023-05-01T16:42:54.025Z,24.83
2023-05-01T16:45:59.264Z,25.37
2023-05-01T16:49:05.451Z,24.48
2023-05-01T16:52:09.302Z,25.05
2023-05-01T16:55:12.882Z,24.89
2023-05-01T16:58:16.367Z,23.95
2023-05-01T17:01:21.955Z,23.95
2023-05-01T17:04:25.669Z,24.54
2023-05-01T17:07:29.071Z,24.72
2023-05-01T17:10:32.510Z,25.09
2023-05-01T17:13:35.998Z,26.17
2023-05-01T17:16:39.710Z,25.81
2023-05-01T17:19:43.296Z,24.76
2023-05-01T17:22:47.797Z,24.63
2023-05-01T17:25:51.398Z,25.20
2023-05-01T17:28:54.663Z,25.01
2023-05-01T17:31:59.294Z,24.71
2023-05-01T17:35:04.746Z,24.77
2023-05-01T17:38:08.014Z,23.59
2023-05-01T17:41:11.261Z,23.98
2023-05-01T17:44:14.831Z,24.50
2023-05-01T17:47:18.042Z,26.18
2023-05-01T17:50:21.503Z,25.82
2023-05-01T17:53:25.248Z,26.57
2023-05-01T17:56:28.762Z,26.34
2023-05-01T17:59:32.073Z,25.06
2023-05-01T18:02:36.220Z,26.02
2023-05-01T18:05:39.879Z,25.85
2023-05-01T18:08:43.281Z,25.97
2023-05-01T18:11:46.559Z,26.08
2023-05-01T18:14:50.133Z,25.44
2023-05-01T18:17:53.463Z,25.69
2023-05-01T18:20:56.930Z,26.62
2023-05-01T18:24:00.192Z,26.10
2023-05-01T18:27:03.971Z,26.21
2023-05-01T18:30:07.903Z,26.35
2023-05-01T18:33:11.670Z,26.41
2023-05-01T18:36:15.234Z,26.26
2023-05-01T18:39:22.211Z,26.91
2023-05-01T18:42:25.507Z,26.23
2023-05-01T18:45:29.177Z,25.89
2023-05-01T18:48:32.408Z,25.92
2023-05-01T18:51:35.900Z,25.42
2023-05-01T18:54:39.766Z,25.58
2023-05-01T18:57:44.162Z,24.81
2023-05-01T19:00:50.834Z,25.02
2023-05-01T19:03:56.083Z,25.47
2023-05-01T19:07:00.019Z,24.93
2023-05-01T19:10:03.495Z,24.57
2023-05-01T19:13:07.476Z,25.30
2023-05-01T19:16:11.059Z,25.14
2023-05-01T19:19:14.592Z,25.09
2023-05-01T19:22:17.952Z,25.51
2023-05-01T19:25:21.160Z,25.64
2023-05-01T19:28:24.766Z,25.56
2023-05-01T19:31:27.957Z,24.44
2023-05-01T19:34:31.603Z,25.14
2023-05-01T19:37:34.885Z,25.73
2023-05-01T19:40:40.493Z,25.58
2023-05-01T19:43:43.880Z,25.25
2023-05-01T19:46:47.477Z,25.47
2023-05-01T19:49:51.028Z,25.15
2023-05-01T19:52:54.519Z,25.30
2023-05-01T19:55:58.386Z,24.99
2023-05-01T19:59:01.687Z,24.66
2023-05-01T20:02:05.410Z,24.37
2023-05-01T20:05:09.162Z,24.40
2023-05-01T20:08:12.592Z,24.92
2023-05-01T20:11:18.210Z,25.03
2023-05-01T20:14:21.815Z,25.48
2023-05-01T20:17:25.099Z,25.09
2023-05-01T20:20:28.440Z,25.29
2023-05-01T20:23:31.764Z,25.32
2023-05-01T20:26:35.000Z,25.43
2023-05-01T20:29:38.266Z,25.74
2023-05-01T20:32:41.473Z,25.67
2023-05-01T20:35:45.569Z,25.68
2023-05-01T20:38:48.713Z,25.48
2023-05-01T20:41:52.277Z,25.70
2023-05-01T20:44:58.288Z,25.88
2023-05-01T20:48:03.274Z,26.13
2023-05-01T20:51:06.877Z,25.81
2023-05-01T20:54:10.294Z,25.38
2023-05-01T20:57:15.281Z,25.65
2023-05-01T21:00:21.796Z,25.81
2023-05-01T21:03:24.743Z,26.05
2023-05-01T21:06:28.465Z,25.62
2023-05-01T21:09:31.814Z,25.58
2023-05-01T21:12:35.284Z,25.84
2023-05-01T21:15:42.764Z,25.76
2023-05-01T21:18:46.697Z,25.93
2023-05-01T21:21:51.655Z,26.25
2023-05-01T21:24:58.717Z,26.32
2023-05-01T21:28:02.415Z,25.68
2023-05-01T21:31:06.891Z,25.89
2023-05-01T21:34:12.208Z,25.90
2023-05-01T21:37:15.789Z,25.84
2023-05-01T21:40:19.552Z,25.96
2023-05-01T21:43:24.007Z,26.12
2023-05-01T21:46:27.404Z,25.97
2023-05-01T21:49:33.763Z,25.81
2023-05-01T21:52:37.000Z,25.86
2023-05-01T21:55:40.256Z,25.96
2023-05-01T21:58:43.579Z,26.10
2023-05-01T22:01:47.017Z,25.44
2023-05-01T22:04:53.866Z,25.38
2023-05-01T22:07:57.112Z,25.54
2023-05-01T22:11:00.534Z,25.37
2023-05-01T22:14:03.883Z,25.13
2023-05-01T22:17:07.172Z,25.16
2023-05-01T22:20:10.878Z,25.75
2023-05-01T22:23:14.120Z,25.97
2023-05-01T22:26:17.372Z,26.01
2023-05-01T22:29:20.624Z,26.09
2023-05-01T22:32:24.160Z,26.05
2023-05-01T22:35:28.081Z,25.92
2023-05-01T22:38:31.313Z,25.74
2023-05-01T22:41:34.482Z,25.60
2023-05-01T22:44:37.809Z,25.45
2023-05-01T22:47:43.390Z,25.35
2023-05-01T22:50:46.811Z,25.58
2023-05-01T22:53:50.070Z,25.58
2023-05-01T22:56:57.301Z,25.50
2023-05-01T23:00:00.995Z,25.37
2023-05-01T23:03:04.760Z,25.05
2023-05-01T23:06:08.117Z,25.19
2023-05-01T23:09:12.271Z,25.38
2023-05-01T23:12:19.715Z,25.49
2023-05-01T23:15:26.657Z,25.34
2023-05-01T23:18:33.856Z,24.93
2023-05-01T23:21:37.364Z,25.11
2023-05-01T23:24:49.530Z,25.09
2023-05-01T23:27:56.329Z,24.95
2023-05-01T23:31:02.267Z,24.95
2023-05-01T23:34:05.750Z,24.96
2023-05-01T23:37:09.054Z,25.00
2023-05-01T23:40:12.815Z,24.78
2023-05-01T23:43:16.157Z,24.55
2023-05-01T23:46:19.605Z,24.76
2023-05-01T23:49:23.144Z,24.40
2023-05-01T23:52:26.574Z,24.29
2023-05-01T23:55:29.819Z,24.54
2023-05-01T23:58:33.082Z,24.60
